FW4383 Weather Reports


Display with metric or nautical units.
time (UTC)temp
F
wind
direction
speed
MPH
gust
MPH
rain 1hr
in
rain 24hr
in
rain mn
in
humidity
%
barometer
mb
20200401113031 33 150 2.0 0.0 0.00 0.50 0.00 99 1.0
20200401111530 33 137 2.0 0.0 0.00 0.51 0.00 99 1.0
20200401110029 32 151 1.0 0.0 0.00 0.51 0.00 98 1.0
20200401104530 32 143 3.0 0.0 0.00 0.51 0.00 98 1.0
20200401103029 33 122 0.0 0.0 0.00 0.51 0.00 98 1.0
20200401101531 33 156 2.0 0.0 0.00 0.52 0.00 97 1.0
20200401094531 33 151 3.0 0.0 0.00 0.54 0.00 96 1.0
20200401093027 34 153 2.0 0.0 0.00 0.55 0.00 95 1.0
20200401090034 34 178 2.0 0.0 0.00 0.56 0.00 97 1.0
20200401084530 33 173 3.0 0.0 0.00 0.56 0.00 96 1.0
20200401083031 34 157 0.0 0.0 0.00 0.57 0.00 96 1.0
20200401080029 36 181 2.0 0.0 0.00 0.59 0.00 95 1.0
20200401074528 37 197 3.0 0.0 0.00 0.59 0.00 95 1.0
20200401073028 35 240 3.0 0.0 0.00 0.59 0.00 96 1.0
20200401071529 35 209 1.0 0.0 0.00 0.59 0.00 95 1.0
20200401070030 36 283 2.0 0.0 0.00 0.60 0.00 95 1.0
20200401064531 36 194 0.0 0.0 0.00 0.60 0.60 94 1.0
20200401063028 38 254 4.0 0.0 0.00 0.61 0.60 92 1.0
20200401060043 37 281 5.0 0.0 0.03 0.67 0.60 94 1.0
20200401054528 37 281 5.0 0.0 0.09 0.69 0.61 94 1.0
20200401053031 37 281 5.0 0.0 0.10 0.69 0.61 94 1.0
20200401051530 38 279 5.0 0.0 0.09 0.69 0.60 94 1.0
20200401050029 38 254 4.0 0.0 0.06 0.67 0.56 95 1.0
20200401044529 37 204 1.0 0.0 0.01 0.63 0.52 95 1.0
20200401043029 37 202 0.0 0.0 0.00 0.63 0.51 94 1.0
20200401041528 38 202 0.0 0.0 0.00 0.64 0.51 93 1.0
20200401040032 39 201 1.0 0.0 0.00 0.66 0.51 93 1.0
20200401034532 39 161 1.0 0.0 0.00 0.66 0.51 93 1.0
20200401033030 39 282 0.0 0.0 0.01 0.67 0.51 92 1.0
20200401031531 39 277 1.0 0.0 0.01 0.68 0.51 91 1.0
20200401030028 39 260 2.0 0.0 0.01 0.71 0.51 90 1.0
20200401024530 39 251 4.0 0.0 0.01 0.72 0.51 90 1.0
20200401023030 39 264 4.0 0.0 0.01 0.73 0.50 90 1.0
20200401021530 39 271 5.0 0.0 0.05 0.76 0.50 90 1.0
20200401020028 38 249 6.0 0.0 0.09 0.78 0.50 91 1.0
20200401014529 38 283 5.0 0.0 0.09 0.79 0.50 91 1.0
20200401013031 39 284 7.0 0.0 0.08 0.79 0.49 87 1.0
20200401011537 42 282 8.0 0.0 0.04 0.76 0.45 81 1.0
20200401010029 43 277 6.0 0.0 0.00 0.72 0.41 80 1.0
20200401004527 43 261 5.0 0.0 0.00 0.72 0.41 80 1.0
20200401003029 43 230 3.0 0.0 0.00 0.73 0.41 79 1.0
20200401001530 43 234 4.0 0.0 0.00 0.73 0.41 79 1.0
20200401000114 43 222 3.0 0.0 0.00 0.73 0.41 80 1.0
20200331234532 43 236 4.0 0.0 0.00 0.74 0.41 81 1.0
20200331233031 44 217 2.0 0.0 0.01 0.76 0.41 79 1.0
20200331231529 43 241 5.0 0.0 0.01 0.77 0.41 81 1.0
20200331230027 42 249 8.0 0.0 0.01 0.77 0.41 83 1.0
20200331224528 43 260 9.0 0.0 0.01 0.78 0.00 82 1.0
20200331223030 44 275 10.0 0.0 0.00 0.79 0.40 74 1.0
20200331221530 46 269 8.0 0.0 0.00 0.82 0.40 69 1.0
20200331220030 47 264 7.0 0.0 0.00 0.83 0.40 71 1.0
20200331214529 46 265 9.0 0.0 0.00 0.83 0.40 73 1.0
20200331213032 46 262 8.0 0.0 0.00 0.83 0.40 76 1.0
20200331211529 46 261 4.0 0.0 0.00 0.83 0.40 78 1.0
20200331210032 46 206 4.0 0.0 0.00 0.83 0.40 80 1.0
20200331204531 45 198 5.0 0.0 0.01 0.83 0.40 83 1.0
20200331201529 41 258 7.0 0.0 0.01 0.84 0.40 89 1.0
20200331200028 41 266 9.0 0.0 0.01 0.84 0.40 85 1.0
20200331194527 44 293 9.0 0.0 0.00 0.83 0.39 79 1.0
20200331193031 44 283 7.0 0.0 0.00 0.83 0.39 79 1.0
20200331191530 43 280 5.0 0.0 0.00 0.83 0.39 80 1.0
20200331190031 43 276 6.0 0.0 0.00 0.83 0.39 81 1.0
20200331184529 44 261 3.0 0.0 0.00 0.83 0.39 89 1.0
20200331181531 42 199 3.0 0.0 0.00 0.83 0.39 93 1.0
20200331180030 40 215 3.0 0.0 0.00 0.83 0.39 94 1.0
20200331174529 40 153 3.0 0.0 0.00 0.83 0.39 95 1.0
20200331173029 39 189 3.0 0.0 0.01 0.84 0.39 96 1.0
20200331171529 38 94 1.0 0.0 0.03 0.84 0.39 96 1.0
20200331170031 38 70 1.0 0.0 0.05 0.84 0.39 96 1.0
20200331164529 38 297 1.0 0.0 0.10 0.85 0.39 96 1.0
20200331163030 37 247 6.0 0.0 0.15 0.86 0.38 96 1.0
20200331161529 36 233 4.0 0.0 0.15 0.85 0.36 98 1.0
20200331160030 36 273 4.0 0.0 0.13 0.84 0.34 98 1.0
20200331154530 38 298 5.0 0.0 0.09 0.80 0.28 98 1.0
20200331153031 39 314 4.0 0.0 0.04 0.75 0.23 100 1.0
20200331151531 38 243 0.0 0.0 0.04 0.74 0.21 100 1.0
20200331150030 38 243 0.0 0.0 0.05 0.75 0.20 100 1.0
20200331144530 38 172 0.0 0.0 0.05 0.77 0.20 100 1.0
20200331143030 37 180 0.0 0.0 0.04 0.77 0.19 100 1.0
20200331141529 38 159 1.0 0.0 0.02 0.76 0.17 100 1.0
20200331140031 38 127 1.0 0.0 0.00 0.75 0.15 100 1.0
20200331134530 37 112 1.0 0.0 0.01 0.76 0.15 100 1.0
20200331133030 37 112 0.0 0.0 0.01 0.76 0.15 100 1.0
20200331131530 37 112 0.0 0.0 0.02 0.76 0.15 100 1.0
20200331130030 37 112 0.0 0.0 0.03 0.77 0.15 100 1.0
20200331124530 37 112 0.0 0.0 0.04 0.76 0.14 100 1.0
20200331123032 37 112 2.0 0.0 0.04 0.77 0.14 100 1.0
20200331121530 37 112 1.0 0.0 0.04 0.78 0.13 100 1.0
20200331120028 37 303 0.0 0.0 0.03 0.79 0.12 100 1.0
20200331114528 37 28 0.0 0.0 0.01 0.78 0.10 100 1.0